createdAt,value
2016-03-05T00:00:39.132Z,53.36
2016-03-05T00:01:38.884Z,53.45
2016-03-05T00:02:38.855Z,53.16
2016-03-05T00:03:38.842Z,53.36
2016-03-05T00:04:39.017Z,53.36
2016-03-05T00:05:38.801Z,53.45
2016-03-05T00:06:38.773Z,53.36
2016-03-05T00:07:38.759Z,53.45
2016-03-05T00:08:38.715Z,53.45
2016-03-05T00:09:38.701Z,53.33
2016-03-05T00:10:38.673Z,53.33
2016-03-05T00:11:38.645Z,53.42
2016-03-05T00:12:38.632Z,53.52
2016-03-05T00:13:38.667Z,53.42
2016-03-05T00:14:38.590Z,53.42
2016-03-05T00:15:38.578Z,53.45
2016-03-05T00:16:38.580Z,53.33
2016-03-05T00:17:38.537Z,53.33
2016-03-05T00:18:38.508Z,53.33
2016-03-05T00:19:38.494Z,53.33
2016-03-05T00:20:38.444Z,53.33
2016-03-05T00:21:38.420Z,53.33
2016-03-05T00:22:38.379Z,53.52
2016-03-05T00:23:38.355Z,53.33
2016-03-05T00:24:38.314Z,53.42
2016-03-05T00:25:38.295Z,53.42
2016-03-05T00:26:38.262Z,53.52
2016-03-05T00:27:38.244Z,53.42
2016-03-05T00:28:38.200Z,53.42
2016-03-05T00:29:38.177Z,53.42
2016-03-05T00:30:38.146Z,53.42
2016-03-05T00:31:38.117Z,53.52
2016-03-05T00:32:38.101Z,53.42
2016-03-05T00:33:38.089Z,53.14
2016-03-05T00:34:38.074Z,53.14
2016-03-05T00:35:38.044Z,52.85
2016-03-05T00:36:38.015Z,53.52
2016-03-05T00:37:37.985Z,53.14
2016-03-05T00:38:37.971Z,53.04
2016-03-05T00:39:37.926Z,52.85
2016-03-05T00:40:37.912Z,52.85
2016-03-05T00:41:37.901Z,53.23
2016-03-05T00:42:37.872Z,52.85
2016-03-05T00:43:37.843Z,52.95
2016-03-05T00:44:37.830Z,52.95
2016-03-05T00:45:37.832Z,52.95
2016-03-05T00:46:37.773Z,52.95
2016-03-05T00:47:37.759Z,52.75
2016-03-05T00:48:37.732Z,52.95
2016-03-05T00:49:37.703Z,52.95
2016-03-05T00:50:37.690Z,52.95
2016-03-05T00:51:37.661Z,52.85
2016-03-05T00:52:37.648Z,52.75
2016-03-05T00:53:37.619Z,52.85
2016-03-05T00:54:37.607Z,53.04
2016-03-05T00:55:37.579Z,52.95
2016-03-05T00:56:37.550Z,52.95
2016-03-05T00:57:37.522Z,52.75
2016-03-05T00:58:37.508Z,52.66
2016-03-05T00:59:37.480Z,52.85
2016-03-05T01:00:37.466Z,52.75
2016-03-05T01:01:37.547Z,52.75
2016-03-05T01:02:37.411Z,52.66
2016-03-05T01:03:37.381Z,52.75
2016-03-05T01:04:37.369Z,52.75
2016-03-05T01:05:37.340Z,52.73
2016-03-05T01:06:37.327Z,52.75
2016-03-05T01:07:37.329Z,52.83
2016-03-05T01:08:37.270Z,52.75
2016-03-05T01:09:37.257Z,52.63
2016-03-05T01:10:37.229Z,52.66
2016-03-05T01:11:37.199Z,52.54
2016-03-05T01:12:37.187Z,52.73
2016-03-05T01:13:37.173Z,52.73
2016-03-05T01:14:37.145Z,52.63
2016-03-05T01:15:37.117Z,52.54
2016-03-05T01:16:37.088Z,52.47
2016-03-05T01:17:37.060Z,53.3
2016-03-05T01:18:37.046Z,52.54
2016-03-05T01:19:37.018Z,53.2
2016-03-05T01:20:37.005Z,52.54
2016-03-05T01:21:36.976Z,53.2
2016-03-05T01:22:36.963Z,52.54
2016-03-05T01:23:36.935Z,52.34
2016-03-05T01:24:36.907Z,52.44
2016-03-05T01:25:36.925Z,53.2
2016-03-05T01:26:36.880Z,52.63
2016-03-05T01:27:36.836Z,52.54
2016-03-05T01:28:36.823Z,52.44
2016-03-05T01:29:36.795Z,52.25
2016-03-05T01:30:36.782Z,52.63
2016-03-05T01:31:36.753Z,52.54
2016-03-05T01:32:36.756Z,52.54
2016-03-05T01:33:36.697Z,52.73
2016-03-05T01:34:36.683Z,52.06
2016-03-05T01:35:36.654Z,52.54
2016-03-05T01:36:36.626Z,52.92
2016-03-05T01:37:36.614Z,52.83
2016-03-05T01:38:36.600Z,52.54
2016-03-05T01:39:36.557Z,52.54
2016-03-05T01:40:36.543Z,52.63
2016-03-05T01:41:36.530Z,52.54
2016-03-05T01:42:36.485Z,52.54
2016-03-05T01:43:36.488Z,52.83
2016-03-05T01:44:36.445Z,52.83
2016-03-05T01:45:36.432Z,52.54
2016-03-05T01:46:36.404Z,52.44
2016-03-05T01:47:36.374Z,52.44
2016-03-05T01:48:36.377Z,52.83
2016-03-05T01:49:36.333Z,52.34
2016-03-05T01:50:36.320Z,52.44
2016-03-05T01:51:36.275Z,52.54
2016-03-05T01:52:36.279Z,52.73
2016-03-05T01:53:36.235Z,52.92
2016-03-05T01:54:36.237Z,52.54
2016-03-05T01:55:36.192Z,52.44
2016-03-05T01:56:36.180Z,52.34
2016-03-05T01:57:36.151Z,52.54
2016-03-05T01:58:36.139Z,52.34
2016-03-05T01:59:36.094Z,52.34
2016-03-05T02:00:36.082Z,52.15
2016-03-05T02:01:36.147Z,52.54
2016-03-05T02:02:36.039Z,52.44
2016-03-05T02:03:36.027Z,52.44
2016-03-05T02:04:36.185Z,52.54
2016-03-05T02:05:35.970Z,52.54
2016-03-05T02:06:35.942Z,52.44
2016-03-05T02:07:35.928Z,52.44
2016-03-05T02:08:35.900Z,52.44
2016-03-05T02:09:35.887Z,52.44
2016-03-05T02:10:35.858Z,52.63
2016-03-05T02:11:35.845Z,52.54
2016-03-05T02:12:35.816Z,52.44
2016-03-05T02:13:35.805Z,52.63
2016-03-05T02:14:35.760Z,52.54
2016-03-05T02:15:35.794Z,52.34
2016-03-05T02:16:35.738Z,52.54
2016-03-05T02:17:35.694Z,52.44
2016-03-05T02:18:35.665Z,52.32
2016-03-05T02:19:35.636Z,52.51
2016-03-05T02:20:35.482Z,52.42
2016-03-05T02:21:35.594Z,52.63
2016-03-05T02:22:35.583Z,52.42
2016-03-05T02:23:35.569Z,52.51
2016-03-05T02:24:35.525Z,52.13
2016-03-05T02:25:35.512Z,52.54
2016-03-05T02:26:35.480Z,52.51
2016-03-05T02:27:35.452Z,52.34
2016-03-05T02:28:35.439Z,52.32
2016-03-05T02:29:35.410Z,52.51
2016-03-05T02:30:35.382Z,52.13
2016-03-05T02:31:35.369Z,52.13
2016-03-05T02:32:35.387Z,52.51
2016-03-05T02:33:35.312Z,52.32
2016-03-05T02:34:35.315Z,52.42
2016-03-05T02:35:35.271Z,52.32
2016-03-05T02:36:35.257Z,51.93
2016-03-05T02:37:35.214Z,52.13
2016-03-05T02:38:35.201Z,52.13
2016-03-05T02:39:35.172Z,52.42
2016-03-05T02:40:35.159Z,52.32
2016-03-05T02:41:35.114Z,52.13
2016-03-05T02:42:35.117Z,52.32
2016-03-05T02:43:35.073Z,52.13
2016-03-05T02:44:35.061Z,52.32
2016-03-05T02:45:35.032Z,52.13
2016-03-05T02:46:35.034Z,52.22
2016-03-05T02:47:34.975Z,52.32
2016-03-05T02:48:34.961Z,52.22
2016-03-05T02:49:34.933Z,52.22
2016-03-05T02:50:34.951Z,52.22
2016-03-05T02:51:34.892Z,52.13
2016-03-05T02:52:34.864Z,52.13
2016-03-05T02:53:34.850Z,52.32
2016-03-05T02:54:34.822Z,52.13
2016-03-05T02:55:34.808Z,52.22
2016-03-05T02:56:34.936Z,52.13
2016-03-05T02:57:34.767Z,52.03
2016-03-05T02:58:34.723Z,52.13
2016-03-05T02:59:34.726Z,52.03
2016-03-05T03:00:34.682Z,51.93
2016-03-05T03:01:34.668Z,52.13
2016-03-05T03:02:34.640Z,52.13
2016-03-05T03:03:34.611Z,52.13
2016-03-05T03:04:34.598Z,52.13
2016-03-05T03:05:34.570Z,52.13
2016-03-05T03:06:34.541Z,52.13
2016-03-05T03:07:34.529Z,51.93
2016-03-05T03:08:34.500Z,52.13
2016-03-05T03:09:34.471Z,52.13
2016-03-05T03:10:34.458Z,52.22
2016-03-05T03:11:34.430Z,52.13
2016-03-05T03:12:34.401Z,52.22
2016-03-05T03:13:34.373Z,52.13
2016-03-05T03:14:34.360Z,51.93
2016-03-05T03:15:34.331Z,52.03
2016-03-05T03:16:34.319Z,52.22
2016-03-05T03:17:34.289Z,52.13
2016-03-05T03:18:34.277Z,52.13
2016-03-05T03:19:34.247Z,52.03
2016-03-05T03:20:34.220Z,51.93
2016-03-05T03:21:34.192Z,52.03
2016-03-05T03:22:34.163Z,51.93
2016-03-05T03:23:34.166Z,51.93
2016-03-05T03:24:34.136Z,52.03
2016-03-05T03:25:34.108Z,51.93
2016-03-05T03:26:34.079Z,52.22
2016-03-05T03:27:34.051Z,51.84
2016-03-05T03:28:34.038Z,52.22
2016-03-05T03:29:34.010Z,52.13
2016-03-05T03:30:33.982Z,52.13
2016-03-05T03:31:33.952Z,51.93
2016-03-05T03:32:33.940Z,51.93
2016-03-05T03:33:33.926Z,51.93
2016-03-05T03:34:33.882Z,52.13
2016-03-05T03:35:33.870Z,51.84
2016-03-05T03:36:33.841Z,51.84
2016-03-05T03:37:33.812Z,51.93
2016-03-05T03:38:33.799Z,51.84
2016-03-05T03:39:33.770Z,51.65
2016-03-05T03:40:33.758Z,51.84
2016-03-05T03:41:33.729Z,51.84
2016-03-05T03:42:33.701Z,51.93
2016-03-05T03:43:33.688Z,51.93
2016-03-05T03:44:33.676Z,51.84
2016-03-05T03:45:33.647Z,52.13
2016-03-05T03:46:33.617Z,51.93
2016-03-05T03:47:33.589Z,51.65
2016-03-05T03:48:33.592Z,51.65
2016-03-05T03:49:33.532Z,51.75
2016-03-05T03:50:33.520Z,52.13
2016-03-05T03:51:33.506Z,51.84
2016-03-05T03:52:33.462Z,51.84
2016-03-05T03:53:33.449Z,52.51
2016-03-05T03:54:33.452Z,51.93
2016-03-05T03:55:33.641Z,52.61
2016-03-05T03:56:33.379Z,51.93
2016-03-05T03:57:33.350Z,51.93
2016-03-05T03:58:33.322Z,51.84
2016-03-05T03:59:33.294Z,51.84
2016-03-05T04:00:33.280Z,52.03
2016-03-05T04:01:33.252Z,51.84
2016-03-05T04:02:33.238Z,51.75
2016-03-05T04:03:33.210Z,51.84
2016-03-05T04:04:33.181Z,51.75
2016-03-05T04:05:33.169Z,51.93
2016-03-05T04:06:33.141Z,51.93
2016-03-05T04:07:33.112Z,51.84
2016-03-05T04:08:33.099Z,51.93
2016-03-05T04:09:33.086Z,51.75
2016-03-05T04:10:33.042Z,51.93
2016-03-05T04:11:33.029Z,51.93
2016-03-05T04:12:33.001Z,51.84
2016-03-05T04:13:32.973Z,51.93
2016-03-05T04:14:32.959Z,51.93
2016-03-05T04:15:32.931Z,51.84
2016-03-05T04:16:32.917Z,51.84
2016-03-05T04:17:32.872Z,51.84
2016-03-05T04:18:32.860Z,51.93
2016-03-05T04:19:32.832Z,51.93
2016-03-05T04:20:32.803Z,51.84
2016-03-05T04:21:32.790Z,51.91
2016-03-05T04:22:32.606Z,51.84
2016-03-05T04:23:32.733Z,51.84
2016-03-05T04:24:32.719Z,51.84
2016-03-05T04:25:32.691Z,51.84
2016-03-05T04:26:32.664Z,51.84
2016-03-05T04:27:32.650Z,51.93
2016-03-05T04:28:32.638Z,51.93
2016-03-05T04:29:32.608Z,51.84
2016-03-05T04:30:32.580Z,51.75
2016-03-05T04:31:32.598Z,51.81
2016-03-05T04:32:32.538Z,51.93
2016-03-05T04:33:32.509Z,51.84
2016-03-05T04:34:32.482Z,51.84
2016-03-05T04:35:32.453Z,51.93
2016-03-05T04:36:32.440Z,51.75
2016-03-05T04:37:32.412Z,51.75
2016-03-05T04:38:32.398Z,51.84
2016-03-05T04:39:32.354Z,51.91
2016-03-05T04:40:32.340Z,51.91
2016-03-05T04:41:32.343Z,51.91
2016-03-05T04:42:32.301Z,51.93
2016-03-05T04:43:32.271Z,51.93
2016-03-05T04:44:32.259Z,51.93
2016-03-05T04:45:32.214Z,51.93
2016-03-05T04:46:32.200Z,51.91
2016-03-05T04:47:32.188Z,52.03
2016-03-05T04:48:32.160Z,52.01
2016-03-05T04:49:32.131Z,51.91
2016-03-05T04:50:32.103Z,52.03
2016-03-05T04:51:32.089Z,51.93
2016-03-05T04:52:32.061Z,51.93
2016-03-05T04:53:32.032Z,52.1
2016-03-05T04:54:32.019Z,51.72
2016-03-05T04:55:31.991Z,51.91
2016-03-05T04:56:32.228Z,51.91
2016-03-05T04:57:31.934Z,52.01
2016-03-05T04:58:31.906Z,51.72
2016-03-05T04:59:31.892Z,52.01
2016-03-05T05:00:31.863Z,51.91
2016-03-05T05:01:31.835Z,51.72
2016-03-05T05:02:31.822Z,51.91
2016-03-05T05:03:31.810Z,51.91
2016-03-05T05:04:31.766Z,51.91
2016-03-05T05:05:31.799Z,51.91
2016-03-05T05:06:31.725Z,51.81
2016-03-05T05:07:31.696Z,51.91
2016-03-05T05:08:31.683Z,51.91
2016-03-05T05:09:31.654Z,51.91
2016-03-05T05:10:31.689Z,51.72
2016-03-05T05:11:31.598Z,51.91
2016-03-05T05:12:31.600Z,51.72
2016-03-05T05:13:31.556Z,51.81
2016-03-05T05:14:31.527Z,51.72
2016-03-05T05:15:31.514Z,51.72
2016-03-05T05:16:31.485Z,51.81
2016-03-05T05:17:31.457Z,51.81
2016-03-05T05:18:31.444Z,51.91
2016-03-05T05:19:31.416Z,51.81
2016-03-05T05:20:31.388Z,51.91
2016-03-05T05:21:31.374Z,51.81
2016-03-05T05:22:31.346Z,51.91
2016-03-05T05:23:31.317Z,51.81
2016-03-05T05:24:31.288Z,51.72
2016-03-05T05:25:31.290Z,52.67
2016-03-05T05:26:31.248Z,51.72
2016-03-05T05:27:31.251Z,51.72
2016-03-05T05:28:31.206Z,51.72
2016-03-05T05:29:31.209Z,51.81
2016-03-05T05:30:31.148Z,51.81
2016-03-05T05:31:31.151Z,51.91
2016-03-05T05:32:31.107Z,51.72
2016-03-05T05:33:31.094Z,51.72
2016-03-05T05:34:31.050Z,51.81
2016-03-05T05:35:31.052Z,51.72
2016-03-05T05:36:31.009Z,51.81
2016-03-05T05:37:30.995Z,51.91
2016-03-05T05:38:30.966Z,51.81
2016-03-05T05:39:30.938Z,51.72
2016-03-05T05:40:30.925Z,51.91
2016-03-05T05:41:30.928Z,51.91
2016-03-05T05:42:30.869Z,51.91
2016-03-05T05:43:30.871Z,51.91
2016-03-05T05:44:30.827Z,52.01
2016-03-05T05:45:30.814Z,51.91
2016-03-05T05:46:30.816Z,51.81
2016-03-05T05:47:30.819Z,51.81
2016-03-05T05:48:30.727Z,51.81
2016-03-05T05:49:30.716Z,51.72
2016-03-05T05:50:30.687Z,51.91
2016-03-05T05:51:30.658Z,51.81
2016-03-05T05:52:30.629Z,51.72
2016-03-05T05:53:30.616Z,51.72
2016-03-05T05:54:30.587Z,51.81
2016-03-05T05:55:30.560Z,51.81
2016-03-05T05:56:30.532Z,51.81
2016-03-05T05:57:30.518Z,51.91
2016-03-05T05:58:30.490Z,51.72
2016-03-05T05:59:30.476Z,51.81
2016-03-05T06:00:30.448Z,51.91
2016-03-05T06:01:30.420Z,51.81
2016-03-05T06:02:30.406Z,51.91
2016-03-05T06:03:30.394Z,51.72
2016-03-05T06:04:30.350Z,51.91
2016-03-05T06:05:30.165Z,51.91
2016-03-05T06:06:30.308Z,51.91
2016-03-05T06:07:30.279Z,51.91
2016-03-05T06:08:30.251Z,51.91
2016-03-05T06:09:30.222Z,52.01
2016-03-05T06:10:30.209Z,52.01
2016-03-05T06:11:30.181Z,52.01
2016-03-05T06:12:30.168Z,52.01
2016-03-05T06:13:30.139Z,51.91
2016-03-05T06:14:30.111Z,52.01
2016-03-05T06:15:30.097Z,52.2
2016-03-05T06:16:30.069Z,52.01
2016-03-05T06:17:30.040Z,51.91
2016-03-05T06:18:30.027Z,52.01
2016-03-05T06:19:30.000Z,52.01
2016-03-05T06:20:29.971Z,51.91
2016-03-05T06:21:29.958Z,52.01
2016-03-05T06:22:29.913Z,51.91
2016-03-05T06:23:29.900Z,52.01
2016-03-05T06:24:29.887Z,52.1
2016-03-05T06:25:29.859Z,52.01
2016-03-05T06:26:29.830Z,52.01
2016-03-05T06:27:29.802Z,52.1
2016-03-05T06:28:29.790Z,52.01
2016-03-05T06:29:29.745Z,51.91
2016-03-05T06:30:29.731Z,52.01
2016-03-05T06:31:29.703Z,52.01
2016-03-05T06:32:29.691Z,52.01
2016-03-05T06:33:29.662Z,52.01
2016-03-05T06:34:29.648Z,52.01
2016-03-05T06:35:29.621Z,51.91
2016-03-05T06:36:29.576Z,52.1
2016-03-05T06:37:29.563Z,52.01
2016-03-05T06:38:29.566Z,52.1
2016-03-05T06:39:29.506Z,52.01
2016-03-05T06:40:29.493Z,52.1
2016-03-05T06:41:29.465Z,52.1
2016-03-05T06:42:29.436Z,52.01
2016-03-05T06:43:29.423Z,52.01
2016-03-05T06:44:29.503Z,52.01
2016-03-05T06:45:29.381Z,52.1
2016-03-05T06:46:29.352Z,51.81
2016-03-05T06:47:29.324Z,51.91
2016-03-05T06:48:29.297Z,51.81
2016-03-05T06:49:29.267Z,51.91
2016-03-05T06:50:29.255Z,51.81
2016-03-05T06:51:29.241Z,52.01
2016-03-05T06:52:29.197Z,52.01
2016-03-05T06:53:29.215Z,51.81
2016-03-05T06:54:29.155Z,52.1
2016-03-05T06:55:29.127Z,52.1
2016-03-05T06:56:29.130Z,51.72
2016-03-05T06:57:29.086Z,52.1
2016-03-05T06:58:29.073Z,51.81
2016-03-05T06:59:29.029Z,52.01
2016-03-05T07:00:29.015Z,52.29
2016-03-05T07:01:28.987Z,52.01
2016-03-05T07:02:28.959Z,52.2
2016-03-05T07:03:28.945Z,51.72
2016-03-05T07:04:28.918Z,51.91
2016-03-05T07:05:28.920Z,51.72
2016-03-05T07:06:28.892Z,52.29
2016-03-05T07:07:28.847Z,51.72
2016-03-05T07:08:28.834Z,51.72
2016-03-05T07:09:28.836Z,51.43
2016-03-05T07:10:28.777Z,51.62
2016-03-05T07:11:28.780Z,51.43
2016-03-05T07:12:28.736Z,51.81
2016-03-05T07:13:28.706Z,51.43
2016-03-05T07:14:28.694Z,51.34
2016-03-05T07:15:28.649Z,51.15
2016-03-05T07:16:28.636Z,51.62
2016-03-05T07:17:28.608Z,51.62
2016-03-05T07:18:28.595Z,51.34
2016-03-05T07:19:28.567Z,51.81
2016-03-05T07:20:28.539Z,51.72
2016-03-05T07:21:28.369Z,51.81
2016-03-05T07:22:28.496Z,51.81
2016-03-05T07:23:28.483Z,51.81
2016-03-05T07:24:28.440Z,51.81
2016-03-05T07:25:28.427Z,51.81
2016-03-05T07:26:28.413Z,51.81
2016-03-05T07:27:28.385Z,51.91
2016-03-05T07:28:28.357Z,51.72
2016-03-05T07:29:28.329Z,51.81
2016-03-05T07:30:28.299Z,51.81
2016-03-05T07:31:28.271Z,51.72
2016-03-05T07:32:28.257Z,51.62
2016-03-05T07:33:28.230Z,51.81
2016-03-05T07:34:28.201Z,51.53
2016-03-05T07:35:28.172Z,51.43
2016-03-05T07:36:28.159Z,51.81
2016-03-05T07:37:28.131Z,51.43
2016-03-05T07:38:28.102Z,51.43
2016-03-05T07:39:28.089Z,50.95
2016-03-05T07:40:28.061Z,51.05
2016-03-05T07:41:28.236Z,51.24
2016-03-05T07:42:28.020Z,51.24
2016-03-05T07:43:28.006Z,51.05
2016-03-05T07:44:27.962Z,50.95
2016-03-05T07:45:27.980Z,51.05
2016-03-05T07:46:27.936Z,51.05
2016-03-05T07:47:27.923Z,50.67
2016-03-05T07:48:27.879Z,50.86
2016-03-05T07:49:27.851Z,51.15
2016-03-05T07:50:27.822Z,51.05
2016-03-05T07:51:27.825Z,51.05
2016-03-05T07:52:27.780Z,50.86
2016-03-05T07:53:27.752Z,50.95
2016-03-05T07:54:27.755Z,51.15
2016-03-05T07:55:27.710Z,51.24
2016-03-05T07:56:27.682Z,51.05
2016-03-05T07:57:27.654Z,51.15
2016-03-05T07:58:27.641Z,51.15
2016-03-05T07:59:27.612Z,51.15
2016-03-05T08:00:27.599Z,51.34
2016-03-05T08:01:27.554Z,51.24
2016-03-05T08:02:27.558Z,51.34
2016-03-05T08:03:27.513Z,51.43
2016-03-05T08:04:27.501Z,51.24
2016-03-05T08:05:27.504Z,51.43
2016-03-05T08:06:27.475Z,51.24
2016-03-05T08:07:27.415Z,51.24
2016-03-05T08:08:27.402Z,51.34
2016-03-05T08:09:27.374Z,51.24
2016-03-05T08:10:27.346Z,51.24
2016-03-05T08:11:27.317Z,51.15
2016-03-05T08:12:27.320Z,51.15
2016-03-05T08:13:27.276Z,51.53
2016-03-05T08:14:27.262Z,51.24
2016-03-05T08:15:27.234Z,51.53
2016-03-05T08:16:27.206Z,51.34
2016-03-05T08:17:27.177Z,51.05
2016-03-05T08:18:27.165Z,50.95
2016-03-05T08:19:27.135Z,51.15
2016-03-05T08:20:27.122Z,50.95
2016-03-05T08:21:27.094Z,51.05
2016-03-05T08:22:27.065Z,51.15
2016-03-05T08:23:27.037Z,51.05
2016-03-05T08:24:27.009Z,51.15
2016-03-05T08:25:26.995Z,51.05
2016-03-05T08:26:26.967Z,51.34
2016-03-05T08:27:26.939Z,51.05
2016-03-05T08:28:26.925Z,51.05
2016-03-05T08:29:26.912Z,51.05
2016-03-05T08:30:26.868Z,51.34
2016-03-05T08:31:26.855Z,51.24
2016-03-05T08:32:26.827Z,51.05
2016-03-05T08:33:26.813Z,51.05
2016-03-05T08:34:26.786Z,50.95
2016-03-05T08:35:26.757Z,51.15
2016-03-05T08:36:26.728Z,50.95
2016-03-05T08:37:26.699Z,51.05
2016-03-05T08:38:26.936Z,50.95
2016-03-05T08:39:26.658Z,50.86
2016-03-05T08:40:26.629Z,51.05
2016-03-05T08:41:26.616Z,51.05
2016-03-05T08:42:26.588Z,50.67
2016-03-05T08:43:26.685Z,50.95
2016-03-05T08:44:26.546Z,50.48
2016-03-05T08:45:26.518Z,50.76
2016-03-05T08:46:26.490Z,50.67
2016-03-05T08:47:26.476Z,50.48
2016-03-05T08:48:26.448Z,50.57
2016-03-05T08:49:26.419Z,50.86
2016-03-05T08:50:26.391Z,50.67
2016-03-05T08:51:26.378Z,50.48
2016-03-05T08:52:26.349Z,50.67
2016-03-05T08:53:26.336Z,50.86
2016-03-05T08:54:26.308Z,51.43
2016-03-05T08:55:26.279Z,50.38
2016-03-05T08:56:26.266Z,50.48
2016-03-05T08:57:26.237Z,50.38
2016-03-05T08:58:26.209Z,50.48
2016-03-05T08:59:26.181Z,50.57
2016-03-05T09:00:26.152Z,50.57
2016-03-05T09:01:26.139Z,50.48
2016-03-05T09:02:26.111Z,50.86
2016-03-05T09:03:26.098Z,50.48
2016-03-05T09:04:26.085Z,50.19
2016-03-05T09:05:26.071Z,50.67
2016-03-05T09:06:26.043Z,51.43
2016-03-05T09:07:25.999Z,51.34
2016-03-05T09:08:25.986Z,50.95
2016-03-05T09:09:25.942Z,50.67
2016-03-05T09:10:25.929Z,50.76
2016-03-05T09:11:25.916Z,50.95
2016-03-05T09:12:25.871Z,50.76
2016-03-05T09:13:25.859Z,50.38
2016-03-05T09:14:25.830Z,50.76
2016-03-05T09:15:25.818Z,50.67
2016-03-05T09:16:25.773Z,50.38
2016-03-05T09:17:25.760Z,50.48
2016-03-05T09:18:25.747Z,50.19
2016-03-05T09:19:25.718Z,49.9
2016-03-05T09:20:25.690Z,49.9
2016-03-05T09:21:25.662Z,49.71
2016-03-05T09:22:25.633Z,49.62
2016-03-05T09:23:25.620Z,49.71
2016-03-05T09:24:25.592Z,49.62
2016-03-05T09:25:25.578Z,49.62
2016-03-05T09:26:25.550Z,49.9
2016-03-05T09:27:25.510Z,50.09
2016-03-05T09:28:25.466Z,50.09
2016-03-05T09:29:25.439Z,49.9
2016-03-05T09:30:25.396Z,50
2016-03-05T09:31:25.353Z,49.9
2016-03-05T09:32:25.350Z,50.19
2016-03-05T09:33:25.300Z,49.9
2016-03-05T09:34:25.267Z,49.71
2016-03-05T09:35:25.234Z,49.62
2016-03-05T09:36:25.216Z,49.43
2016-03-05T09:37:25.201Z,49.33
2016-03-05T09:38:25.170Z,49.23
2016-03-05T09:39:25.140Z,49.23
2016-03-05T09:40:25.296Z,49.33
2016-03-05T09:41:25.079Z,49.45
2016-03-05T09:42:25.065Z,49.45
2016-03-05T09:43:25.037Z,49.45
2016-03-05T09:44:25.007Z,49.43
2016-03-05T09:45:24.994Z,49.52
2016-03-05T09:46:24.966Z,49.45
2016-03-05T09:47:24.936Z,49.45
2016-03-05T09:48:24.907Z,49.45
2016-03-05T09:49:24.893Z,49.26
2016-03-05T09:50:24.880Z,49.52
2016-03-05T09:51:24.852Z,49.64
2016-03-05T09:52:24.823Z,49.26
2016-03-05T09:53:24.810Z,49.45
2016-03-05T09:54:24.781Z,49.26
2016-03-05T09:55:24.753Z,49.16
2016-03-05T09:56:24.725Z,49.26
2016-03-05T09:57:24.743Z,49.26
2016-03-05T09:58:24.683Z,49.16
2016-03-05T09:59:24.655Z,49.16
2016-03-05T10:00:24.627Z,49.26
2016-03-05T10:01:24.613Z,49.26
2016-03-05T10:02:24.584Z,49.26
2016-03-05T10:03:24.555Z,49.26
2016-03-05T10:04:24.543Z,49.26
2016-03-05T10:05:24.515Z,49.16
2016-03-05T10:06:24.486Z,49.23
2016-03-05T10:07:24.473Z,49.14
2016-03-05T10:08:24.444Z,49.16
2016-03-05T10:09:24.431Z,49.26
2016-03-05T10:10:24.403Z,49.16
2016-03-05T10:11:24.373Z,49.26
2016-03-05T10:12:24.362Z,49.16
2016-03-05T10:13:24.317Z,49.07
2016-03-05T10:14:24.304Z,49.16
2016-03-05T10:15:24.292Z,49.16
2016-03-05T10:16:24.279Z,49.16
2016-03-05T10:17:24.234Z,49.07
2016-03-05T10:18:24.236Z,49.16
2016-03-05T10:19:24.177Z,49.14
2016-03-05T10:20:24.180Z,49.16
2016-03-05T10:21:24.151Z,49.04
2016-03-05T10:22:24.123Z,49.35
2016-03-05T10:23:24.094Z,50.12
2016-03-05T10:24:24.081Z,49.93
2016-03-05T10:25:24.052Z,49.55
2016-03-05T10:26:24.039Z,49.43
2016-03-05T10:27:24.042Z,49.74
2016-03-05T10:28:23.983Z,49.14
2016-03-05T10:29:23.970Z,49.26
2016-03-05T10:30:23.941Z,49.35
2016-03-05T10:31:23.928Z,49.45
2016-03-05T10:32:23.883Z,49.35
2016-03-05T10:33:23.855Z,49.35
2016-03-05T10:34:23.842Z,49.07
2016-03-05T10:35:23.813Z,49.26
2016-03-05T10:36:23.801Z,49.16
2016-03-05T10:37:24.038Z,48.78
2016-03-05T10:38:23.744Z,49.07
2016-03-05T10:39:23.715Z,48.88
2016-03-05T10:40:23.702Z,48.97
2016-03-05T10:41:23.673Z,48.88
2016-03-05T10:42:23.645Z,48.59
2016-03-05T10:43:23.662Z,48.21
2016-03-05T10:44:23.604Z,48.59
2016-03-05T10:45:23.607Z,48.49
2016-03-05T10:46:23.562Z,48.3
2016-03-05T10:47:23.534Z,48.3
2016-03-05T10:48:23.505Z,48.02
2016-03-05T10:49:23.492Z,48.02
2016-03-05T10:50:23.464Z,47.92
2016-03-05T10:51:23.451Z,47.82
2016-03-05T10:52:23.422Z,47.73
2016-03-05T10:53:23.394Z,47.73
2016-03-05T10:54:23.397Z,47.25
2016-03-05T10:55:23.367Z,47.53
2016-03-05T10:56:23.339Z,47.53
2016-03-05T10:57:23.310Z,47.44
2016-03-05T10:58:23.283Z,47.53
2016-03-05T10:59:23.284Z,47.53
2016-03-05T11:00:23.225Z,47.34
2016-03-05T11:01:23.211Z,47.34
2016-03-05T11:02:23.183Z,47.44
2016-03-05T11:03:23.185Z,47.25
2016-03-05T11:04:23.282Z,47.27
2016-03-05T11:05:23.129Z,47.27
2016-03-05T11:06:23.085Z,47.06
2016-03-05T11:07:23.071Z,47.08
2016-03-05T11:08:23.044Z,47.18
2016-03-05T11:09:23.030Z,47.18
2016-03-05T11:10:23.001Z,47.37
2016-03-05T11:11:22.973Z,47.27
2016-03-05T11:12:22.959Z,47.18
2016-03-05T11:13:22.948Z,46.98
2016-03-05T11:14:22.918Z,47.08
2016-03-05T11:15:22.921Z,47.27
2016-03-05T11:16:22.862Z,46.98
2016-03-05T11:17:22.848Z,47.18
2016-03-05T11:18:22.820Z,47.18
2016-03-05T11:19:22.791Z,47.18
2016-03-05T11:20:22.778Z,47.18
2016-03-05T11:21:22.766Z,47.08
2016-03-05T11:22:22.722Z,46.89
2016-03-05T11:23:22.709Z,47.18
2016-03-05T11:24:22.680Z,47.18
2016-03-05T11:25:22.667Z,47.08
2016-03-05T11:26:22.638Z,46.98
2016-03-05T11:27:22.610Z,47.18
2016-03-05T11:28:22.596Z,46.98
2016-03-05T11:29:22.568Z,46.98
2016-03-05T11:30:22.556Z,47.18
2016-03-05T11:31:22.527Z,47.08
2016-03-05T11:32:22.514Z,47.08
2016-03-05T11:33:22.485Z,47.08
2016-03-05T11:34:22.660Z,47.27
2016-03-05T11:35:22.427Z,46.98
2016-03-05T11:36:21.680Z,47.08
2016-03-05T11:37:22.403Z,47.37
2016-03-05T11:38:22.358Z,47.18
2016-03-05T11:39:22.361Z,47.18
2016-03-05T11:40:22.332Z,47.18
2016-03-05T11:41:22.304Z,47.56
2016-03-05T11:42:22.275Z,47.66
2016-03-05T11:43:22.278Z,47.27
2016-03-05T11:44:22.234Z,47.27
2016-03-05T11:45:22.205Z,47.75
2016-03-05T11:46:22.193Z,47.47
2016-03-05T11:47:22.164Z,47.27
2016-03-05T11:48:22.151Z,47.75
2016-03-05T11:49:22.106Z,47.66
2016-03-05T11:50:22.094Z,47.66
2016-03-05T11:51:22.080Z,47.94
2016-03-05T11:52:22.053Z,47.94
2016-03-05T11:53:22.023Z,47.94
2016-03-05T11:54:22.026Z,48.04
2016-03-05T11:55:21.981Z,47.94
2016-03-05T11:56:21.953Z,47.94
2016-03-05T11:57:21.941Z,47.85
2016-03-05T11:58:21.911Z,47.94
2016-03-05T11:59:21.915Z,48.04
2016-03-05T12:00:21.902Z,47.94
2016-03-05T12:01:21.858Z,48.04
2016-03-05T12:02:21.813Z,47.85
2016-03-05T12:03:21.800Z,48.04
2016-03-05T12:04:21.772Z,47.94
2016-03-05T12:05:21.758Z,47.94
2016-03-05T12:06:21.731Z,47.94
2016-03-05T12:07:21.702Z,47.94
2016-03-05T12:08:21.689Z,48.13
2016-03-05T12:09:21.661Z,48.33
2016-03-05T12:10:21.632Z,48.23
2016-03-05T12:11:21.603Z,48.33
2016-03-05T12:12:21.590Z,48.21
2016-03-05T12:13:21.562Z,48.61
2016-03-05T12:14:21.548Z,48.42
2016-03-05T12:15:21.521Z,48.61
2016-03-05T12:16:21.492Z,48.52
2016-03-05T12:17:21.463Z,48.52
2016-03-05T12:18:21.528Z,48.61
2016-03-05T12:19:21.453Z,48.52
2016-03-05T12:20:21.409Z,48.52
2016-03-05T12:21:21.395Z,48.23
2016-03-05T12:22:21.399Z,48.3
2016-03-05T12:23:21.339Z,48.23
2016-03-05T12:24:21.310Z,48.04
2016-03-05T12:25:21.298Z,48.04
2016-03-05T12:26:21.269Z,48.33
2016-03-05T12:27:21.239Z,48.33
2016-03-05T12:28:21.227Z,48.33
2016-03-05T12:29:21.198Z,48.3
2016-03-05T12:30:21.217Z,48.42
2016-03-05T12:31:21.314Z,48.33
2016-03-05T12:32:21.128Z,48.42
2016-03-05T12:33:21.147Z,48.42
2016-03-05T12:34:21.086Z,48.52
2016-03-05T12:35:21.058Z,48.33
2016-03-05T12:36:20.921Z,48.52
2016-03-05T12:37:21.016Z,48.13
2016-03-05T12:38:20.989Z,48.13
2016-03-05T12:39:20.975Z,48.33
2016-03-05T12:40:20.213Z,48.23
2016-03-05T12:41:20.918Z,48.23
2016-03-05T12:42:20.171Z,48.42
2016-03-05T12:43:20.143Z,48.42
2016-03-05T12:44:20.848Z,47.94
2016-03-05T12:45:20.835Z,47.47
2016-03-05T12:46:20.807Z,47.47
2016-03-05T12:47:20.794Z,47.94
2016-03-05T12:48:20.765Z,48.04
2016-03-05T12:49:20.737Z,47.94
2016-03-05T12:50:20.708Z,47.75
2016-03-05T12:51:20.712Z,47.47
2016-03-05T12:52:20.682Z,47.56
2016-03-05T12:53:20.653Z,47.47